createdAt,value
2022-09-04T00:02:08.447Z,11.10
2022-09-04T00:07:53.122Z,11.20
2022-09-04T00:13:23.971Z,11.00
2022-09-04T00:19:03.720Z,11.10
2022-09-04T00:24:49.416Z,11.10
2022-09-04T00:30:19.822Z,11.00
2022-09-04T00:35:57.771Z,11.00
2022-09-04T00:41:30.987Z,11.00
2022-09-04T00:47:05.271Z,11.00
2022-09-04T00:52:42.052Z,11.00
2022-09-04T00:58:17.538Z,10.90
2022-09-04T01:04:17.343Z,10.90
2022-09-04T01:09:47.123Z,10.90
2022-09-04T01:15:22.459Z,10.90
2022-09-04T01:21:07.283Z,10.70
2022-09-04T01:26:56.465Z,10.70
2022-09-04T01:32:55.885Z,10.70
2022-09-04T01:38:22.535Z,10.80
2022-09-04T01:43:44.663Z,10.80
2022-09-04T01:49:20.741Z,10.80
2022-09-04T01:54:42.839Z,10.70
2022-09-04T02:00:08.839Z,10.70
2022-09-04T02:05:55.973Z,10.70
2022-09-04T02:11:28.483Z,10.70
2022-09-04T02:17:18.388Z,10.60
2022-09-04T02:23:11.824Z,10.50
2022-09-04T02:28:51.540Z,10.50
2022-09-04T02:34:25.291Z,10.50
2022-09-04T02:40:19.676Z,10.30
2022-09-04T02:45:58.484Z,10.40
2022-09-04T02:51:42.520Z,10.30
2022-09-04T02:57:30.671Z,10.20
2022-09-04T03:03:20.974Z,10.20
2022-09-04T03:08:54.486Z,10.20
2022-09-04T03:14:27.722Z,10.10
2022-09-04T03:19:57.252Z,10.00
2022-09-04T03:25:50.650Z,9.90
2022-09-04T03:31:47.616Z,10.00
2022-09-04T03:37:32.455Z,10.00
2022-09-04T03:43:03.851Z,10.00
2022-09-04T03:48:45.527Z,10.10
2022-09-04T03:54:07.612Z,10.20
2022-09-04T03:59:37.927Z,10.30
2022-09-04T04:05:03.178Z,10.40
2022-09-04T04:10:35.418Z,10.50
2022-09-04T04:16:25.570Z,10.50
2022-09-04T04:22:13.929Z,10.60
2022-09-04T04:28:07.269Z,10.70
2022-09-04T04:33:42.533Z,10.70
2022-09-04T04:39:35.954Z,10.80
2022-09-04T04:45:25.768Z,10.80
2022-09-04T04:51:00.634Z,10.80
2022-09-04T04:57:13.005Z,10.80
2022-09-04T05:02:50.985Z,10.80
2022-09-04T05:08:34.912Z,10.80
2022-09-04T05:14:16.152Z,10.90
2022-09-04T05:19:52.322Z,10.80
2022-09-04T05:25:26.242Z,10.80
2022-09-04T05:31:09.454Z,10.80
2022-09-04T05:37:03.059Z,10.80
2022-09-04T05:42:56.637Z,10.90
2022-09-04T05:48:33.962Z,10.90
2022-09-04T05:54:44.469Z,11.00
2022-09-04T06:00:16.203Z,11.00
2022-09-04T06:05:56.096Z,11.10
2022-09-04T06:11:41.056Z,11.10
2022-09-04T06:17:34.209Z,11.20
2022-09-04T06:23:20.780Z,11.20
2022-09-04T06:29:05.434Z,11.20
2022-09-04T06:35:09.312Z,11.30
2022-09-04T06:40:58.628Z,11.40
2022-09-04T06:46:29.349Z,11.40
2022-09-04T06:51:57.711Z,11.40
2022-09-04T06:57:47.626Z,11.60
2022-09-04T07:03:27.480Z,11.70
2022-09-04T07:09:15.680Z,11.80
2022-09-04T07:14:52.027Z,12.00
2022-09-04T07:20:26.950Z,12.30
2022-09-04T07:26:11.055Z,12.40
2022-09-04T07:31:42.352Z,12.60
2022-09-04T07:37:17.696Z,12.80
2022-09-04T07:43:06.353Z,13.00
2022-09-04T07:48:48.065Z,13.50
2022-09-04T07:54:35.510Z,14.20
2022-09-04T08:00:10.987Z,14.50
2022-09-04T08:05:52.680Z,14.30
2022-09-04T08:11:37.805Z,14.50
2022-09-04T08:17:24.802Z,15.00
2022-09-04T08:23:08.098Z,15.40
2022-09-04T08:28:57.271Z,15.40
2022-09-04T08:34:52.923Z,15.10
2022-09-04T08:40:34.705Z,15.20
2022-09-04T08:46:31.733Z,15.50
2022-09-04T08:51:59.973Z,15.60
2022-09-04T08:57:52.877Z,15.70
2022-09-04T09:03:34.328Z,15.40
2022-09-04T09:09:19.200Z,15.30
2022-09-04T09:15:14.024Z,15.40
2022-09-04T09:20:47.010Z,15.40
2022-09-04T09:26:24.263Z,15.30
2022-09-04T09:32:05.124Z,15.50
2022-09-04T09:38:04.880Z,15.70
2022-09-04T09:43:57.039Z,15.70
2022-09-04T09:49:42.308Z,15.60
2022-09-04T09:55:42.134Z,16.00
2022-09-04T10:01:19.286Z,16.00
2022-09-04T10:06:44.811Z,15.90
2022-09-04T10:12:18.938Z,15.70
2022-09-04T10:18:23.159Z,16.10
2022-09-04T10:23:51.269Z,16.40
2022-09-04T10:29:50.623Z,16.30
2022-09-04T10:35:46.976Z,16.40
2022-09-04T10:41:30.450Z,16.40
2022-09-04T10:47:00.021Z,16.40
2022-09-04T10:52:35.161Z,16.70
2022-09-04T10:58:40.191Z,16.70
2022-09-04T11:04:22.823Z,16.70
2022-09-04T11:10:11.803Z,16.60
2022-09-04T11:15:59.152Z,16.90
2022-09-04T11:21:49.522Z,17.10
2022-09-04T11:27:33.468Z,17.40
2022-09-04T11:33:32.763Z,17.10
2022-09-04T11:39:13.493Z,17.50
2022-09-04T11:44:52.386Z,17.60
2022-09-04T11:50:52.842Z,17.80
2022-09-04T11:56:44.447Z,18.20
2022-09-04T12:02:38.550Z,18.00
2022-09-04T12:08:35.941Z,18.60
2022-09-04T12:14:19.760Z,18.20
2022-09-04T12:20:24.087Z,18.20
2022-09-04T12:26:01.464Z,18.50
2022-09-04T12:31:54.675Z,18.30
2022-09-04T12:37:36.923Z,18.30
2022-09-04T12:43:38.799Z,18.40
2022-09-04T12:49:26.249Z,18.40
2022-09-04T12:55:04.148Z,18.50
2022-09-04T13:00:46.031Z,18.40
2022-09-04T13:06:17.849Z,18.00
2022-09-04T13:12:06.065Z,18.00
2022-09-04T13:17:48.438Z,18.00
2022-09-04T13:23:29.144Z,17.70
2022-09-04T13:29:36.283Z,17.70
2022-09-04T13:35:18.893Z,17.60
2022-09-04T13:41:18.342Z,17.40
2022-09-04T13:46:46.123Z,17.30
2022-09-04T13:52:15.563Z,17.20
2022-09-04T13:57:44.692Z,16.90
2022-09-04T14:03:44.987Z,17.00
2022-09-04T14:09:07.376Z,17.00
2022-09-04T14:15:05.562Z,16.70
2022-09-04T14:20:57.930Z,16.80
2022-09-04T14:27:07.636Z,16.80
2022-09-04T14:33:07.376Z,16.70
2022-09-04T14:38:43.579Z,16.50
2022-09-04T14:44:42.607Z,16.50
2022-09-04T14:50:09.965Z,16.70
2022-09-04T14:56:01.995Z,17.10
2022-09-04T15:01:25.601Z,17.10
2022-09-04T15:07:10.940Z,16.80
2022-09-04T15:12:38.626Z,16.50
2022-09-04T15:18:16.857Z,16.70
2022-09-04T15:23:49.056Z,16.80
2022-09-04T15:29:18.815Z,16.70
2022-09-04T15:34:41.347Z,16.70
2022-09-04T15:40:29.001Z,16.70
2022-09-04T15:45:51.143Z,16.70
2022-09-04T15:51:22.237Z,16.80
2022-09-04T15:56:53.852Z,16.50
2022-09-04T16:02:37.365Z,16.50
2022-09-04T16:08:06.766Z,16.20
2022-09-04T16:13:58.137Z,16.10
2022-09-04T16:19:57.777Z,16.10
2022-09-04T16:25:49.742Z,16.00
2022-09-04T16:31:14.734Z,15.80
2022-09-04T16:36:48.328Z,15.90
2022-09-04T16:42:30.402Z,16.20
2022-09-04T16:48:33.405Z,16.00
2022-09-04T16:53:52.580Z,15.80
2022-09-04T16:59:29.073Z,15.80
2022-09-04T17:05:00.378Z,16.00
2022-09-04T17:10:28.628Z,16.10
2022-09-04T17:16:14.046Z,15.90
2022-09-04T17:28:09.381Z,15.80
2022-09-04T17:29:16.884Z,15.50
2022-09-04T17:40:33.446Z,15.40
2022-09-04T17:40:47.086Z,15.30
2022-09-04T17:46:06.641Z,15.50
2022-09-04T17:51:33.820Z,15.70
2022-09-04T17:57:24.820Z,15.60
2022-09-04T18:03:00.108Z,15.50
2022-09-04T18:08:32.553Z,15.40
2022-09-04T18:14:02.207Z,15.00
2022-09-04T18:19:51.668Z,15.00
2022-09-04T18:25:21.004Z,15.20
2022-09-04T18:37:09.519Z,15.20
2022-09-04T18:37:41.857Z,15.20
2022-09-04T18:50:27.929Z,15.10
2022-09-04T18:50:50.872Z,15.30
2022-09-04T18:54:49.916Z,15.40
2022-09-04T19:00:22.223Z,15.20
2022-09-04T19:05:46.834Z,15.10
2022-09-04T19:11:20.834Z,15.00
2022-09-04T19:16:52.897Z,15.10
2022-09-04T19:22:23.921Z,15.20
2022-09-04T19:27:56.323Z,15.20
2022-09-04T19:33:27.490Z,15.30
2022-09-04T19:46:00.183Z,15.20
2022-09-04T19:46:17.788Z,15.00
2022-09-04T19:53:22.448Z,14.90
2022-09-04T19:57:32.941Z,14.80
2022-09-04T20:02:38.602Z,14.70
2022-09-04T20:08:53.013Z,14.80
2022-09-04T20:14:21.334Z,14.90
2022-09-04T20:19:52.679Z,14.90
2022-09-04T20:25:14.789Z,14.80
2022-09-04T20:30:43.463Z,14.80
2022-09-04T20:36:09.782Z,14.70
2022-09-04T20:41:48.405Z,14.40
2022-09-04T20:52:45.157Z,14.40
2022-09-04T20:53:13.442Z,14.40
2022-09-04T21:03:06.759Z,14.20
2022-09-04T21:05:10.929Z,14.10
2022-09-04T21:10:45.700Z,13.90
2022-09-04T21:16:32.696Z,13.80
2022-09-04T21:22:32.236Z,13.80
2022-09-04T21:28:21.314Z,13.70
2022-09-04T21:33:53.376Z,13.70
2022-09-04T21:39:58.542Z,13.70
2022-09-04T21:45:59.425Z,13.40
2022-09-04T21:51:52.614Z,13.20
2022-09-04T22:02:30.474Z,13.20
2022-09-04T22:03:31.911Z,13.30
2022-09-04T22:13:29.337Z,13.30
2022-09-04T22:15:06.734Z,13.20
2022-09-04T22:20:52.970Z,13.20
2022-09-04T22:26:30.536Z,13.10
2022-09-04T22:32:20.500Z,13.10
2022-09-04T22:38:01.364Z,13.00
2022-09-04T22:43:25.848Z,12.90
2022-09-04T22:49:23.491Z,12.80
2022-09-04T22:54:51.495Z,12.80
2022-09-04T23:00:17.692Z,12.60
2022-09-04T23:06:12.643Z,12.60
2022-09-04T23:13:54.634Z,12.50
2022-09-04T23:18:45.660Z,12.40
2022-09-04T23:26:42.365Z,12.40
2022-09-04T23:30:10.234Z,12.50
2022-09-04T23:35:44.369Z,12.40
2022-09-04T23:41:33.083Z,12.30
2022-09-04T23:47:48.499Z,12.20
2022-09-04T23:53:25.174Z,12.10
2022-09-04T23:59:21.043Z,12.00
